Joliet, IL (60435)

2:23 PM CDT on April 25, 2015 (GMT -0500)
jolietwx.com | | Change Station
CLOSE
Current Station
Personal Weather Station
Location: Joliet, IL
Elevation: 648 ft
Nearby Weather Stations

Elev 648 ft 41.55 °N, 88.11 °W | Updated 4 minutes ago

Rain
Rain
45.2 °F
Feels Like 41 °F
N
7.0
Wind Variable Wind from NNE
Gusts 12.0 mph

Today
High -- | Low -- °F
--% Chance of Precip.
Yesterday
High -- | Low -- °F
Precip. -- in
5:57 AM 7:43 PM
Waxing Crescent, 48% visible
Pressure 29.71 in
Visibility 5.0 miles
Clouds Mostly Cloudy 800 ft
Mostly Cloudy 2100 ft
Overcast 4600 ft
Windchill 41 °F
Dew Point 44 °F
Humidity 94%
Rainfall 0.51 in
Snow Depth Not available.
UV 3 out of 12
Pollen 10.40 out of 12
Air Quality Not available.
Flu Activity Regional
METAR KLOT 251915Z AUTO 07018G22KT 5SM -RA BKN008 BKN021 OVC046 07/06 A2971 RMK AO2 P0001 T00680056

More Conditions Fewer Conditions

Pressure 29.71 in
Visibility 5.0 miles
Clouds Mostly Cloudy 800 ft
Mostly Cloudy 2100 ft
Overcast 4600 ft
Windchill 41 °F
Dew Point 44 °F
Humidity 94%
Rainfall 0.51 in
Snow Depth Not available.
UV 3 out of 12
Pollen 10.40 out of 12
Air Quality Not available.
Flu Activity Regional
METAR KLOT 251915Z AUTO 07018G22KT 5SM -RA BKN008 BKN021 OVC046 07/06 A2971 RMK AO2 P0001 T00680056

More Conditions Fewer Conditions

10-Day Weather Forecast

Almanac

Astronomy

Apr. 25, 2015 Rise Set
Actual Time
Civil Twilight
Nautical Twilight
Astronomical Twilight
Moon
Length of Visible Light
Length of Day
Tomorrow will be .
, % of the Moon is Illuminated

Today's Extremes

State Highs State Lows

Community

WunderPhotos

Upload Photos

1,816,781 photos uploaded!

WunderBlogs® & News

Nearby

Air Quality

  Air Quality AQ Index Pollutant
Not available.

Snow Depth

Station Depth Elevation

Earthquake Activity

City Distance Mag. Time & Date
Minimum magnitude displayed is 2.5.

Coastal Water Temperatures

Place Temperature

Stations

Nearby Weather Stations

Station Location Temp. Windchill Dew Point Humidity Wind Precip. Elev Updated Type